Kezdőlap
METAR-TAF:

METAR-TAF

Repülőterek :

Zeltwegi katonai repülőtér

Zeltweg, Ausztria

földrajzi szélesség: 47-12N, földrajzi hosszúság: 014-45E, magasság: 677 m

Jelenlegi meteorológiai megfigyelések

A jelentés 50 perccel ezelõtt készült, 04:50 UTC
Különbözõ irányokból fújó szél 2 kt
Hőmérséklet -13°C
Páratartalom 92%
Légköri nyomás 1013 hPa
Látótávolság: 3000 m
fagy, Párásság

METAR: LOXZ 200450Z VRB02KT 3000 FZBR FEW002ST SCT080SC M13/M14 Q1013

Idő: 06:40 (05:40 UTC)

Előrejelzés

A jelentés 18 órával és 25 perccel ezelõtt készült, 11:15 UTC
Az előrejelzés 19-én 12 óra UTC és 19-én 21 óra UTC között érvényes
Különbözõ irányokból fújó szél 3 kt
Látótávolság 10 km, vagy több
Szórványos felhőzet 3000 lábon
Szakadozott felhőzet 4500 lábon
19-én 12 óra UTC és 19-én 21 óra UTC között ideiglenes
enyhe havazás

TAF: LOXZ 191115Z 1912/1921 VRB03KT 9999 SCT030 BKN045 TEMPO 1912/1921 -SN

Meteorológiai megfigyelések és előrejelzések több, mint 4000 repülőtéren (METAR és TAF jelentéseket).

A térképen piros és sárga pontok jelzik az elérhető meteorológiai állomásokat.

Mozgassa az egeret a pont fölött, hogy megjelenjen az állomás neve.

Azután kattintson az időjárási megfigyelések és előrejelzések megtekintéséhez.

A térkép megváltoztatása: kattintson a fekete keresztel jelölt zöld gombra ráközelítéshez, a vonallal jelölt zöld gombra távolításhoz, vagy a zöld nyilakra a szomszédos térképek eléréséhez.


METAR-TAF: